createdAt,value
2023-04-11T00:00:53.997Z,100369.81
2023-04-11T00:05:56.456Z,100365.84
2023-04-11T00:10:58.696Z,100364.28
2023-04-11T00:16:02.693Z,100352.63
2023-04-11T00:21:05.453Z,100347.97
2023-04-11T00:26:08.125Z,100348.75
2023-04-11T00:31:10.305Z,100350.00
2023-04-11T00:36:12.722Z,100349.38
2023-04-11T00:41:14.935Z,100350.28
2023-04-11T00:46:18.194Z,100338.66
2023-04-11T00:51:21.421Z,100322.38
2023-04-11T00:56:23.992Z,100324.03
2023-04-11T01:01:26.191Z,100316.75
2023-04-11T01:06:31.152Z,100302.00
2023-04-11T01:11:34.305Z,100301.25
2023-04-11T01:16:36.674Z,100302.28
2023-04-11T01:21:39.134Z,100303.09
2023-04-11T01:26:41.380Z,100327.19
2023-04-11T01:31:43.822Z,100312.63
2023-04-11T01:36:46.201Z,100282.34
2023-04-11T01:41:49.540Z,100273.75
2023-04-11T01:46:52.144Z,100308.47
2023-04-11T01:51:54.402Z,100290.38
2023-04-11T01:56:57.103Z,100264.31
2023-04-11T02:01:59.431Z,100278.44
2023-04-11T02:07:01.700Z,100275.78
2023-04-11T02:12:04.137Z,100269.03
2023-04-11T02:17:10.199Z,100267.66
2023-04-11T02:22:13.401Z,100289.72
2023-04-11T02:27:15.530Z,100298.13
2023-04-11T02:32:17.990Z,100282.88
2023-04-11T02:37:20.176Z,100262.66
2023-04-11T02:42:22.326Z,100257.13
2023-04-11T02:47:24.630Z,100272.16
2023-04-11T02:52:26.793Z,100284.19
2023-04-11T02:57:28.944Z,100286.13
2023-04-11T03:02:31.938Z,100269.03
2023-04-11T03:07:34.405Z,100294.53
2023-04-11T03:12:36.528Z,100280.38
2023-04-11T03:17:38.701Z,100279.66
2023-04-11T03:22:40.911Z,100237.53
2023-04-11T03:27:43.237Z,100263.94
2023-04-11T03:32:45.672Z,100252.28
2023-04-11T03:37:48.405Z,100262.59
2023-04-11T03:42:50.939Z,100263.25
2023-04-11T03:47:53.075Z,100276.03
2023-04-11T03:52:55.293Z,100256.72
2023-04-11T03:57:57.749Z,100267.00
2023-04-11T04:03:00.014Z,100268.09
2023-04-11T04:08:02.371Z,100251.91
2023-04-11T04:13:04.465Z,100276.88
2023-04-11T04:18:06.728Z,100275.94
2023-04-11T04:23:08.911Z,100283.19
2023-04-11T04:28:11.199Z,100277.34
2023-04-11T04:33:14.952Z,100274.13
2023-04-11T04:38:18.182Z,100276.44
2023-04-11T04:43:23.360Z,100297.38
2023-04-11T04:48:26.037Z,100294.06
2023-04-11T04:53:28.172Z,100275.69
2023-04-11T04:58:30.410Z,100304.31
2023-04-11T05:03:35.237Z,100285.56
2023-04-11T05:08:37.373Z,100281.31
2023-04-11T05:13:39.479Z,100292.97
2023-04-11T05:18:42.840Z,100280.66
2023-04-11T05:23:45.178Z,100270.84
2023-04-11T05:28:47.340Z,100282.56
2023-04-11T05:33:49.772Z,100292.56
2023-04-11T05:38:52.095Z,100288.69
2023-04-11T05:43:54.333Z,100293.53
2023-04-11T05:48:59.509Z,100298.66
2023-04-11T05:54:01.793Z,100306.25
2023-04-11T05:59:04.717Z,100290.03
2023-04-11T06:04:06.958Z,100278.50
2023-04-11T06:09:10.568Z,100290.50
2023-04-11T06:14:12.721Z,100287.63
2023-04-11T06:19:14.840Z,100271.81
2023-04-11T06:24:19.999Z,100280.28
2023-04-11T06:29:22.166Z,100288.94
2023-04-11T06:34:24.470Z,100286.63
2023-04-11T06:39:26.909Z,100255.88
2023-04-11T06:44:29.392Z,100278.00
2023-04-11T06:49:36.176Z,100258.13
2023-04-11T06:54:38.297Z,100268.28
2023-04-11T06:59:40.722Z,100237.53
2023-04-11T07:04:43.059Z,100243.59
2023-04-11T07:09:45.564Z,100228.31
2023-04-11T07:14:47.816Z,100244.53
2023-04-11T07:19:49.953Z,100256.38
2023-04-11T07:24:53.227Z,100265.28
2023-04-11T07:29:56.739Z,100262.03
2023-04-11T07:34:58.959Z,100250.78
2023-04-11T07:40:01.298Z,100247.13
2023-04-11T07:45:03.544Z,100251.88
2023-04-11T07:50:07.815Z,100263.28
2023-04-11T07:55:10.449Z,100251.28
2023-04-11T08:00:20.786Z,100228.28
2023-04-11T08:05:23.142Z,100240.91
2023-04-11T08:10:26.113Z,100254.16
2023-04-11T08:15:28.403Z,100229.53
2023-04-11T08:20:30.607Z,100235.13
2023-04-11T08:25:32.977Z,100232.00
2023-04-11T08:30:35.209Z,100222.03
2023-04-11T08:35:38.535Z,100222.09
2023-04-11T08:40:40.672Z,100218.69
2023-04-11T08:45:43.373Z,100198.19
2023-04-11T08:50:46.640Z,100195.88
2023-04-11T08:55:49.103Z,100195.66
2023-04-11T09:00:51.249Z,100184.97
2023-04-11T09:05:55.058Z,100199.38
2023-04-11T09:11:02.048Z,100175.66
2023-04-11T09:16:12.778Z,100167.06
2023-04-11T09:21:17.009Z,100203.75
2023-04-11T09:26:30.109Z,100193.66
2023-04-11T09:31:43.863Z,100176.78
2023-04-11T09:36:55.305Z,100157.44
2023-04-11T09:41:57.767Z,100152.53
2023-04-11T09:47:00.574Z,100151.22
2023-04-11T09:52:03.713Z,100153.84
2023-04-11T09:57:06.268Z,100149.63
2023-04-11T10:02:08.725Z,100129.97
2023-04-11T10:07:15.012Z,100121.38
2023-04-11T10:12:33.656Z,100110.53
2023-04-11T10:17:36.898Z,100107.63
2023-04-11T10:22:42.033Z,100116.06
2023-04-11T10:27:53.398Z,100106.84
2023-04-11T10:33:21.208Z,100081.72
2023-04-11T10:38:52.880Z,100102.88
2023-04-11T10:44:15.296Z,100096.97
2023-04-11T10:49:40.808Z,100072.81
2023-04-11T10:54:44.069Z,100069.56
2023-04-11T10:59:52.273Z,100066.78
2023-04-11T11:04:54.944Z,100055.56
2023-04-11T11:09:57.116Z,100054.13
2023-04-11T11:14:59.363Z,100049.63
2023-04-11T11:20:02.091Z,100026.38
2023-04-11T11:25:10.888Z,100048.03
2023-04-11T11:30:13.718Z,100034.31
2023-04-11T11:35:16.182Z,100012.97
2023-04-11T11:40:22.065Z,100027.47
2023-04-11T11:50:32.907Z,100015.16
2023-04-11T11:55:35.290Z,100003.66
2023-04-11T12:00:39.870Z,100016.19
2023-04-11T12:05:43.764Z,99985.41
2023-04-11T12:10:50.948Z,99991.19
2023-04-11T12:15:58.524Z,99995.47
2023-04-11T12:21:00.681Z,99988.03
2023-04-11T12:26:03.107Z,99964.09
2023-04-11T12:31:05.466Z,99966.06
2023-04-11T12:36:08.275Z,99953.81
2023-04-11T12:46:17.627Z,99955.03
2023-04-11T12:51:19.854Z,99962.25
2023-04-11T12:56:22.396Z,99943.88
2023-04-11T13:01:24.751Z,99924.72
2023-04-11T13:06:27.073Z,99945.38
2023-04-11T13:11:29.122Z,99912.31
2023-04-11T13:16:32.257Z,99910.06
2023-04-11T13:21:35.070Z,99902.47
2023-04-11T13:26:37.460Z,99893.84
2023-04-11T13:31:40.022Z,99892.94
2023-04-11T13:36:43.111Z,99899.50
2023-04-11T13:41:45.428Z,99902.66
2023-04-11T13:46:47.769Z,99901.88
2023-04-11T13:51:50.058Z,99883.16
2023-04-11T13:56:52.293Z,99862.41
2023-04-11T14:01:54.996Z,99861.56
2023-04-11T14:06:57.802Z,99864.38
2023-04-11T14:12:00.029Z,99878.31
2023-04-11T14:17:02.289Z,99863.03
2023-04-11T14:22:04.989Z,99859.47
2023-04-11T14:27:07.154Z,99845.84
2023-04-11T14:32:10.022Z,99842.34
2023-04-11T14:37:12.275Z,99839.06
2023-04-11T14:42:14.693Z,99841.72
2023-04-11T14:47:17.292Z,99812.84
2023-04-11T14:52:19.721Z,99832.66
2023-04-11T14:57:23.163Z,99820.28
2023-04-11T15:02:25.775Z,99825.22
2023-04-11T15:07:28.281Z,99826.63
2023-04-11T15:12:30.595Z,99812.38
2023-04-11T15:17:39.267Z,99815.03
2023-04-11T15:22:43.285Z,99805.00
2023-04-11T15:27:45.566Z,99785.91
2023-04-11T15:32:48.067Z,99785.44
2023-04-11T15:37:50.312Z,99790.44
2023-04-11T15:42:52.714Z,99796.25
2023-04-11T15:47:55.335Z,99789.34
2023-04-11T15:52:57.977Z,99777.09
2023-04-11T15:58:00.072Z,99807.59
2023-04-11T16:03:03.502Z,99764.09
2023-04-11T16:08:07.430Z,99776.38
2023-04-11T16:13:09.799Z,99793.66
2023-04-11T16:18:12.021Z,99783.50
2023-04-11T16:23:14.290Z,99764.97
2023-04-11T16:28:16.728Z,99785.38
2023-04-11T16:33:19.032Z,99778.66
2023-04-11T16:38:21.206Z,99786.78
2023-04-11T16:43:23.441Z,99786.94
2023-04-11T16:48:25.543Z,99775.22
2023-04-11T16:53:27.799Z,99771.69
2023-04-11T16:58:30.076Z,99760.13
2023-04-11T17:03:33.740Z,99771.38
2023-04-11T17:08:35.967Z,99766.47
2023-04-11T17:13:38.885Z,99786.22
2023-04-11T17:18:41.313Z,99766.97
2023-04-11T17:23:56.744Z,99776.88
2023-04-11T17:28:59.241Z,99781.97
2023-04-11T17:34:01.667Z,99793.97
2023-04-11T17:39:04.756Z,99813.91
2023-04-11T17:44:06.900Z,99820.94
2023-04-11T17:49:08.997Z,99818.47
2023-04-11T17:54:11.117Z,99845.66
2023-04-11T17:59:14.005Z,99822.66
2023-04-11T18:04:16.456Z,99831.16
2023-04-11T18:09:18.652Z,99848.31
2023-04-11T18:14:21.051Z,99861.00
2023-04-11T18:19:23.200Z,99863.03
2023-04-11T18:24:25.677Z,99880.03
2023-04-11T18:29:27.813Z,99894.75
2023-04-11T18:34:30.217Z,99882.53
2023-04-11T18:39:32.840Z,99898.78
2023-04-11T18:44:36.327Z,99900.34
2023-04-11T18:49:38.824Z,99909.44
2023-04-11T18:54:41.085Z,99892.88
2023-04-11T18:59:44.190Z,99876.19
2023-04-11T19:04:49.811Z,99892.41
2023-04-11T19:09:53.521Z,99913.72
2023-04-11T19:14:56.223Z,99886.38
2023-04-11T19:19:58.591Z,99900.44
2023-04-11T19:25:01.071Z,99920.69
2023-04-11T19:30:03.838Z,99937.78
2023-04-11T19:35:09.219Z,99928.91
2023-04-11T19:40:11.771Z,99926.91
2023-04-11T19:45:13.995Z,99936.97
2023-04-11T19:50:16.274Z,99939.97
2023-04-11T19:55:18.819Z,99934.03
2023-04-11T20:00:21.700Z,99931.78
2023-04-11T20:05:24.267Z,99890.69
2023-04-11T20:10:28.117Z,99918.38
2023-04-11T20:15:31.260Z,99913.63
2023-04-11T20:20:34.034Z,99940.84
2023-04-11T20:25:36.425Z,99933.34
2023-04-11T20:30:39.696Z,99903.69
2023-04-11T20:35:41.987Z,99916.31
2023-04-11T20:40:44.204Z,99923.50
2023-04-11T20:45:46.520Z,99916.97
2023-04-11T20:50:48.857Z,99931.66
2023-04-11T20:55:51.256Z,99932.50
2023-04-11T21:00:56.893Z,99921.28
2023-04-11T21:05:59.471Z,99912.09
2023-04-11T21:11:02.319Z,99915.00
2023-04-11T21:16:04.886Z,99921.22
2023-04-11T21:21:07.774Z,99944.00
2023-04-11T21:26:09.907Z,99905.34
2023-04-11T21:31:12.071Z,99926.94
2023-04-11T21:36:14.371Z,99933.91
2023-04-11T21:41:16.655Z,99913.53
2023-04-11T21:46:19.262Z,99931.97
2023-04-11T21:51:21.497Z,99929.09
2023-04-11T21:56:23.741Z,99915.84
2023-04-11T22:01:26.067Z,99912.81
2023-04-11T22:06:30.806Z,99910.34
2023-04-11T22:11:33.007Z,99922.38
2023-04-11T22:16:36.048Z,99928.44
2023-04-11T22:21:38.923Z,99906.94
2023-04-11T22:26:46.768Z,99907.31
2023-04-11T22:31:50.732Z,99892.47
2023-04-11T22:36:52.992Z,99891.25
2023-04-11T22:41:56.893Z,99889.09
2023-04-11T22:47:01.610Z,99897.38
2023-04-11T22:52:03.769Z,99883.66
2023-04-11T22:57:06.217Z,99886.72
2023-04-11T23:02:09.189Z,99909.09
2023-04-11T23:07:11.378Z,99905.78
2023-04-11T23:12:13.601Z,99904.09
2023-04-11T23:17:16.126Z,99903.09
2023-04-11T23:22:19.052Z,99887.19
2023-04-11T23:27:21.760Z,99878.06
2023-04-11T23:32:24.351Z,99878.88
2023-04-11T23:37:29.710Z,99913.00
2023-04-11T23:42:31.988Z,99878.06
2023-04-11T23:47:35.222Z,99858.38
2023-04-11T23:52:37.369Z,99885.44
2023-04-11T23:57:39.654Z,99896.41
